AIRPORT ID: 6K5

DATE: 2021-12-09 ZULU TIME: 0.35 LOCAL TIME: 16.35


METAR K6K5 090035Z AUTO 26011G22KT 160V360 04/M02 A2986

ALTIMETER: A2986 Q1011

DENSITY ALT: 2700 Ft

WIND DIRECT: 280

WIND SPEED: 11 Gust

WIND CONDITIONS:

VISIBILTY: Not Available

TEMPERATURE: 39 F 4 C

DEW POINT: 28 F -2 C

HUMID: 66%

LCL: 1,000-3,000 feet

RADIO CHECK: 0

ADVISARIES: 0

GREETINGS: 0

CONVERSATIONS: 0